createdAt,value
2022-07-30T00:00:47.045Z,81.35
2022-07-30T00:03:13.450Z,81.19
2022-07-30T00:05:39.887Z,81.31
2022-07-30T00:08:06.356Z,81.32
2022-07-30T00:10:32.794Z,81.35
2022-07-30T00:12:59.283Z,81.58
2022-07-30T00:15:25.761Z,81.52
2022-07-30T00:17:52.314Z,81.50
2022-07-30T00:20:18.787Z,81.96
2022-07-30T00:22:45.496Z,81.58
2022-07-30T00:25:11.920Z,82.00
2022-07-30T00:27:38.612Z,82.06
2022-07-30T00:30:05.723Z,82.08
2022-07-30T00:32:32.233Z,82.14
2022-07-30T00:34:58.677Z,82.42
2022-07-30T00:37:25.095Z,81.96
2022-07-30T00:39:51.481Z,82.07
2022-07-30T00:42:25.452Z,82.27
2022-07-30T00:44:55.165Z,82.43
2022-07-30T00:47:21.572Z,82.53
2022-07-30T00:49:47.993Z,82.32
2022-07-30T00:52:14.420Z,82.08
2022-07-30T00:54:40.875Z,81.97
2022-07-30T00:57:07.318Z,82.03
2022-07-30T00:59:34.469Z,82.13
2022-07-30T01:02:01.755Z,82.12
2022-07-30T01:04:28.930Z,82.24
2022-07-30T01:06:55.509Z,82.13
2022-07-30T01:09:21.884Z,81.75
2022-07-30T01:11:48.479Z,82.25
2022-07-30T01:14:15.225Z,82.30
2022-07-30T01:16:43.188Z,82.38
2022-07-30T01:19:41.676Z,81.93
2022-07-30T01:22:18.993Z,82.01
2022-07-30T01:25:05.640Z,81.88
2022-07-30T01:27:36.847Z,82.29
2022-07-30T01:30:05.629Z,82.49
2022-07-30T01:32:36.659Z,82.27
2022-07-30T01:35:06.129Z,82.15
2022-07-30T01:37:34.878Z,82.10
2022-07-30T01:40:01.561Z,82.02
2022-07-30T01:42:29.816Z,82.41
2022-07-30T01:44:58.431Z,82.20
2022-07-30T01:47:25.569Z,82.29
2022-07-30T01:49:54.798Z,82.08
2022-07-30T01:52:23.345Z,82.47
2022-07-30T01:54:52.332Z,82.27
2022-07-30T01:57:20.460Z,82.58
2022-07-30T01:59:50.313Z,82.36
2022-07-30T02:02:18.149Z,82.50
2022-07-30T02:04:44.772Z,82.56
2022-07-30T02:07:19.956Z,82.57
2022-07-30T02:09:58.153Z,82.33
2022-07-30T02:12:29.185Z,82.80
2022-07-30T02:15:14.731Z,82.60
2022-07-30T02:17:56.193Z,82.61
2022-07-30T02:20:28.294Z,82.85
2022-07-30T02:23:00.165Z,82.71
2022-07-30T02:25:29.484Z,82.96
2022-07-30T02:28:00.505Z,82.73
2022-07-30T02:30:31.753Z,82.88
2022-07-30T02:33:03.363Z,82.54
2022-07-30T02:35:31.567Z,82.93
2022-07-30T02:38:00.585Z,82.59
2022-07-30T02:40:28.116Z,82.80
2022-07-30T02:42:54.893Z,82.91
2022-07-30T02:45:23.797Z,82.76
2022-07-30T02:47:56.456Z,83.06
2022-07-30T02:50:24.559Z,83.23
2022-07-30T02:52:53.329Z,82.87
2022-07-30T02:55:20.397Z,83.28
2022-07-30T02:57:47.830Z,83.15
2022-07-30T03:00:14.521Z,82.88
2022-07-30T03:02:43.781Z,83.09
2022-07-30T03:05:11.569Z,82.77
2022-07-30T03:07:39.636Z,82.85
2022-07-30T03:10:07.731Z,82.66
2022-07-30T03:12:35.861Z,82.71
2022-07-30T03:15:02.412Z,82.65
2022-07-30T03:17:32.852Z,82.88
2022-07-30T03:20:01.141Z,82.95
2022-07-30T03:22:32.851Z,83.17
2022-07-30T03:24:59.606Z,83.04
2022-07-30T03:27:26.351Z,83.05
2022-07-30T03:29:54.260Z,82.90
2022-07-30T03:32:25.957Z,82.93
2022-07-30T03:34:54.161Z,83.15
2022-07-30T03:37:21.450Z,83.22
2022-07-30T03:39:48.554Z,83.23
2022-07-30T03:42:15.923Z,82.97
2022-07-30T03:44:45.719Z,83.17
2022-07-30T03:47:13.786Z,83.17
2022-07-30T03:49:40.672Z,83.09
2022-07-30T03:52:08.305Z,82.88
2022-07-30T03:54:35.671Z,83.15
2022-07-30T03:57:04.428Z,83.46
2022-07-30T03:59:31.342Z,83.10
2022-07-30T04:02:07.326Z,83.16
2022-07-30T04:04:34.199Z,83.39
2022-07-30T04:07:00.878Z,82.85
2022-07-30T04:09:27.672Z,83.12
2022-07-30T04:11:54.068Z,83.76
2022-07-30T04:14:20.507Z,83.36
2022-07-30T04:16:54.790Z,83.19
2022-07-30T04:19:34.559Z,83.46
2022-07-30T04:22:03.035Z,83.47
2022-07-30T04:24:31.141Z,83.42
2022-07-30T04:26:59.903Z,83.31
2022-07-30T04:29:27.599Z,83.14
2022-07-30T04:31:54.705Z,83.48
2022-07-30T04:34:21.112Z,84.09
2022-07-30T04:36:47.644Z,83.94
2022-07-30T04:39:14.071Z,83.64
2022-07-30T04:41:48.665Z,83.87
2022-07-30T04:44:16.191Z,83.75
2022-07-30T04:46:42.721Z,84.17
2022-07-30T04:49:10.421Z,84.02
2022-07-30T04:51:38.658Z,84.16
2022-07-30T04:54:08.914Z,84.13
2022-07-30T04:56:53.262Z,84.04
2022-07-30T04:59:23.564Z,83.98
2022-07-30T05:01:51.155Z,84.21
2022-07-30T05:04:18.861Z,84.26
2022-07-30T05:06:46.396Z,84.08
2022-07-30T05:09:16.009Z,84.19
2022-07-30T05:11:42.501Z,84.07
2022-07-30T05:14:08.939Z,84.51
2022-07-30T05:16:35.680Z,84.17
2022-07-30T05:19:02.087Z,84.40
2022-07-30T05:21:34.195Z,84.27
2022-07-30T05:24:00.586Z,84.37
2022-07-30T05:26:27.866Z,84.34
2022-07-30T05:28:55.127Z,84.07
2022-07-30T05:31:23.582Z,84.10
2022-07-30T05:33:52.969Z,84.40
2022-07-30T05:36:20.775Z,84.21
2022-07-30T05:38:48.140Z,84.04
2022-07-30T05:41:31.566Z,84.30
2022-07-30T05:43:59.859Z,84.35
2022-07-30T05:46:26.405Z,84.36
2022-07-30T05:48:53.069Z,84.16
2022-07-30T05:51:20.832Z,84.27
2022-07-30T05:53:47.656Z,83.77
2022-07-30T05:56:14.050Z,83.79
2022-07-30T05:58:40.661Z,83.82
2022-07-30T06:01:07.172Z,83.21
2022-07-30T06:03:34.820Z,83.26
2022-07-30T06:06:05.472Z,82.80
2022-07-30T06:08:32.116Z,83.37
2022-07-30T06:10:58.503Z,83.11
2022-07-30T06:13:24.980Z,82.43
2022-07-30T06:15:51.532Z,82.47
2022-07-30T06:18:18.010Z,82.64
2022-07-30T06:20:45.755Z,82.43
2022-07-30T06:23:12.287Z,82.25
2022-07-30T06:25:39.337Z,81.58
2022-07-30T06:28:27.508Z,81.39
2022-07-30T06:30:53.314Z,81.43
2022-07-30T06:33:19.751Z,81.25
2022-07-30T06:35:46.316Z,81.90
2022-07-30T06:38:12.762Z,81.36
2022-07-30T06:40:39.970Z,80.76
2022-07-30T06:43:06.388Z,81.91
2022-07-30T06:45:32.798Z,80.27
2022-07-30T06:47:59.572Z,81.36
2022-07-30T06:50:26.303Z,80.28
2022-07-30T06:52:53.054Z,79.90
2022-07-30T06:55:19.576Z,79.44
2022-07-30T06:57:45.957Z,78.85
2022-07-30T07:00:12.821Z,79.19
2022-07-30T07:02:39.300Z,79.14
2022-07-30T07:05:07.270Z,80.21
2022-07-30T07:07:42.009Z,77.74
2022-07-30T07:10:11.207Z,78.61
2022-07-30T07:12:37.933Z,76.93
2022-07-30T07:15:05.152Z,76.98
2022-07-30T07:17:31.936Z,76.96
2022-07-30T07:19:59.386Z,75.90
2022-07-30T07:22:27.078Z,75.89
2022-07-30T07:24:53.979Z,75.39
2022-07-30T07:27:20.416Z,76.53
2022-07-30T07:30:01.365Z,75.59
2022-07-30T07:32:32.670Z,75.31
2022-07-30T07:34:59.088Z,74.42
2022-07-30T07:37:25.491Z,75.06
2022-07-30T07:39:51.870Z,73.92
2022-07-30T07:42:18.260Z,73.53
2022-07-30T07:44:44.709Z,73.32
2022-07-30T07:47:11.143Z,70.71
2022-07-30T07:49:37.559Z,71.40
2022-07-30T07:52:04.236Z,70.27
2022-07-30T07:54:30.625Z,69.93
2022-07-30T07:56:57.098Z,70.50
2022-07-30T07:59:23.875Z,69.67
2022-07-30T08:02:03.918Z,69.71
2022-07-30T08:04:30.639Z,70.22
2022-07-30T08:06:57.067Z,68.29
2022-07-30T08:09:23.489Z,68.37
2022-07-30T08:11:49.937Z,67.85
2022-07-30T08:14:16.412Z,68.07
2022-07-30T08:16:42.901Z,67.68
2022-07-30T08:19:09.965Z,66.94
2022-07-30T08:21:36.385Z,66.02
2022-07-30T08:24:02.764Z,65.65
2022-07-30T08:26:29.144Z,66.33
2022-07-30T08:28:55.576Z,65.41
2022-07-30T08:31:21.976Z,66.78
2022-07-30T08:33:48.390Z,66.83
2022-07-30T08:36:14.852Z,66.03
2022-07-30T08:38:41.239Z,65.89
2022-07-30T08:41:07.823Z,66.29
2022-07-30T08:43:35.830Z,64.25
2022-07-30T08:46:04.333Z,63.70
2022-07-30T08:48:30.965Z,65.11
2022-07-30T08:50:57.864Z,63.79
2022-07-30T08:53:25.237Z,63.11
2022-07-30T08:55:54.564Z,63.05
2022-07-30T08:58:35.844Z,61.15
2022-07-30T09:01:03.726Z,61.72
2022-07-30T09:03:30.390Z,61.66
2022-07-30T09:05:56.809Z,61.76
2022-07-30T09:08:23.349Z,61.14
2022-07-30T09:10:53.265Z,60.81
2022-07-30T09:13:28.409Z,63.12
2022-07-30T09:15:56.055Z,61.16
2022-07-30T09:18:34.281Z,60.73
2022-07-30T09:21:13.351Z,62.23
2022-07-30T09:23:39.795Z,60.73
2022-07-30T09:26:06.193Z,60.55
2022-07-30T09:28:34.389Z,61.08
2022-07-30T09:31:01.005Z,60.60
2022-07-30T09:33:42.499Z,61.11
2022-07-30T09:36:12.238Z,60.86
2022-07-30T09:38:52.876Z,61.02
2022-07-30T09:41:38.884Z,60.01
2022-07-30T09:44:06.423Z,60.17
2022-07-30T09:46:45.410Z,59.65
2022-07-30T09:49:19.838Z,59.18
2022-07-30T09:51:54.757Z,57.54
2022-07-30T09:54:24.083Z,59.41
2022-07-30T09:57:26.353Z,59.20
2022-07-30T09:59:55.249Z,57.60
2022-07-30T10:02:32.229Z,58.38
2022-07-30T10:05:21.827Z,58.82
2022-07-30T10:07:52.614Z,57.31
2022-07-30T10:10:26.555Z,55.47
2022-07-30T10:12:59.143Z,56.67
2022-07-30T10:15:30.343Z,56.39
2022-07-30T10:17:59.889Z,57.04
2022-07-30T10:20:27.646Z,56.92
2022-07-30T10:22:55.220Z,57.45
2022-07-30T10:25:28.070Z,59.04
2022-07-30T10:27:57.150Z,57.06
2022-07-30T10:30:28.263Z,55.03
2022-07-30T10:32:57.374Z,56.86
2022-07-30T10:35:31.285Z,53.99
2022-07-30T10:38:08.364Z,54.94
2022-07-30T10:40:40.508Z,53.88
2022-07-30T10:43:33.184Z,55.37
2022-07-30T10:46:09.299Z,53.80
2022-07-30T10:48:46.848Z,53.92
2022-07-30T10:51:13.352Z,54.50
2022-07-30T10:53:52.110Z,54.41
2022-07-30T10:56:25.643Z,53.40
2022-07-30T10:59:09.936Z,54.28
2022-07-30T11:02:09.229Z,53.10
2022-07-30T11:04:36.784Z,54.33
2022-07-30T11:07:28.047Z,54.66
2022-07-30T11:10:09.400Z,53.92
2022-07-30T11:12:43.893Z,52.95
2022-07-30T11:15:19.124Z,52.73
2022-07-30T11:18:12.399Z,53.66
2022-07-30T11:20:43.121Z,53.18
2022-07-30T11:23:24.680Z,52.77
2022-07-30T11:25:54.953Z,52.91
2022-07-30T11:28:36.890Z,54.41
2022-07-30T11:31:10.014Z,55.00
2022-07-30T11:33:37.128Z,55.00
2022-07-30T11:36:10.460Z,53.16
2022-07-30T11:38:57.991Z,53.86
2022-07-30T11:41:27.747Z,52.87
2022-07-30T11:44:27.361Z,52.92
2022-07-30T11:46:54.131Z,52.19
2022-07-30T11:49:20.715Z,51.84
2022-07-30T11:51:56.291Z,51.75
2022-07-30T11:54:22.839Z,50.79
2022-07-30T11:56:51.421Z,51.38
2022-07-30T11:59:17.795Z,50.57
2022-07-30T12:01:48.910Z,50.87
2022-07-30T12:04:15.452Z,50.90
2022-07-30T12:06:46.668Z,49.88
2022-07-30T12:09:20.992Z,48.69
2022-07-30T12:11:47.574Z,50.64
2022-07-30T12:14:14.087Z,49.00
2022-07-30T12:16:48.529Z,49.40
2022-07-30T12:19:14.964Z,49.04
2022-07-30T12:21:41.444Z,49.85
2022-07-30T12:24:09.789Z,50.49
2022-07-30T12:26:36.244Z,49.31
2022-07-30T12:29:10.480Z,51.79
2022-07-30T12:31:38.492Z,52.30
2022-07-30T12:34:27.611Z,52.42
2022-07-30T12:36:54.767Z,51.64
2022-07-30T12:39:24.330Z,51.68
2022-07-30T12:41:53.265Z,50.89
2022-07-30T12:44:35.137Z,50.85
2022-07-30T12:47:03.007Z,50.79
2022-07-30T12:49:39.381Z,50.10
2022-07-30T12:52:35.776Z,50.99
2022-07-30T12:55:06.721Z,50.74
2022-07-30T12:57:52.173Z,50.68
2022-07-30T13:00:19.190Z,49.38
2022-07-30T13:02:45.677Z,51.44
2022-07-30T13:05:12.373Z,50.75
2022-07-30T13:07:59.621Z,50.98
2022-07-30T13:10:30.739Z,51.05
2022-07-30T13:12:58.339Z,49.80
2022-07-30T13:15:28.021Z,51.33
2022-07-30T13:17:54.505Z,49.59
2022-07-30T13:20:21.977Z,50.65
2022-07-30T13:22:48.504Z,51.59
2022-07-30T13:25:14.901Z,50.06
2022-07-30T13:27:41.359Z,48.40
2022-07-30T13:30:08.502Z,48.93
2022-07-30T13:32:35.317Z,50.59
2022-07-30T13:35:02.253Z,51.27
2022-07-30T13:37:37.729Z,49.59
2022-07-30T13:40:05.904Z,48.94
2022-07-30T13:42:32.426Z,48.87
2022-07-30T13:44:58.845Z,49.47
2022-07-30T13:47:25.244Z,49.63
2022-07-30T13:49:51.712Z,49.81
2022-07-30T13:52:18.131Z,47.86
2022-07-30T13:54:45.076Z,48.06
2022-07-30T13:57:11.936Z,47.46
2022-07-30T13:59:38.315Z,46.94
2022-07-30T14:02:04.921Z,48.06
2022-07-30T14:04:31.557Z,48.62
2022-07-30T14:06:57.987Z,48.90
2022-07-30T14:09:24.430Z,50.87
2022-07-30T14:11:51.267Z,50.98
2022-07-30T14:14:18.460Z,49.92
2022-07-30T14:16:46.907Z,49.06
2022-07-30T14:19:23.921Z,48.74
2022-07-30T14:21:52.769Z,49.40
2022-07-30T14:24:19.924Z,51.04
2022-07-30T14:26:46.335Z,48.90
2022-07-30T14:29:12.890Z,51.87
2022-07-30T14:31:40.582Z,50.26
2022-07-30T14:34:07.013Z,50.83
2022-07-30T14:36:33.576Z,50.43
2022-07-30T14:39:01.908Z,53.32
2022-07-30T14:41:28.506Z,53.70
2022-07-30T14:43:55.012Z,52.32
2022-07-30T14:46:21.411Z,51.84
2022-07-30T14:48:47.883Z,53.33
2022-07-30T14:51:21.707Z,53.61
2022-07-30T14:53:50.716Z,53.96
2022-07-30T14:56:17.574Z,52.17
2022-07-30T14:58:44.389Z,54.98
2022-07-30T15:01:15.568Z,51.45
2022-07-30T15:03:43.773Z,50.99
2022-07-30T15:06:12.537Z,50.42
2022-07-30T15:08:39.190Z,51.63
2022-07-30T15:11:07.836Z,51.77
2022-07-30T15:13:34.803Z,53.92
2022-07-30T15:16:02.940Z,52.47
2022-07-30T15:18:29.353Z,53.53
2022-07-30T15:20:56.409Z,51.26
2022-07-30T15:23:23.029Z,49.37
2022-07-30T15:25:49.466Z,50.12
2022-07-30T15:28:15.989Z,51.44
2022-07-30T15:30:42.636Z,52.88
2022-07-30T15:33:09.401Z,49.68
2022-07-30T15:35:36.735Z,53.84
2022-07-30T15:38:03.809Z,54.24
2022-07-30T15:40:30.545Z,55.76
2022-07-30T15:42:56.977Z,54.86
2022-07-30T15:45:24.640Z,53.75
2022-07-30T15:47:51.149Z,51.61
2022-07-30T15:50:17.926Z,50.67
2022-07-30T15:52:45.063Z,50.35
2022-07-30T15:55:12.091Z,48.60
2022-07-30T15:57:38.480Z,50.66
2022-07-30T16:00:07.930Z,54.18
2022-07-30T16:02:34.714Z,52.78
2022-07-30T16:05:01.926Z,51.94
2022-07-30T16:07:28.408Z,49.80
2022-07-30T16:09:54.800Z,53.32
2022-07-30T16:12:21.227Z,52.55
2022-07-30T16:14:47.881Z,52.95
2022-07-30T16:17:14.969Z,54.98
2022-07-30T16:19:45.074Z,54.47
2022-07-30T16:22:12.127Z,52.74
2022-07-30T16:24:41.894Z,51.67
2022-07-30T16:27:10.076Z,52.19
2022-07-30T16:29:36.507Z,51.70
2022-07-30T16:32:03.398Z,51.79
2022-07-30T16:34:30.097Z,51.57
2022-07-30T16:36:56.527Z,52.34
2022-07-30T16:39:22.910Z,51.44
2022-07-30T16:41:49.604Z,51.76
2022-07-30T16:44:15.989Z,53.69
2022-07-30T16:46:42.381Z,55.04
2022-07-30T16:49:09.097Z,55.20
2022-07-30T16:51:35.606Z,57.08
2022-07-30T16:54:02.425Z,52.99
2022-07-30T16:56:28.942Z,52.87
2022-07-30T16:58:55.368Z,54.28
2022-07-30T17:01:21.805Z,57.08
2022-07-30T17:03:48.296Z,55.89
2022-07-30T17:06:14.671Z,57.69
2022-07-30T17:08:41.208Z,56.67
2022-07-30T17:11:09.049Z,55.24
2022-07-30T17:13:37.564Z,55.29
2022-07-30T17:16:04.214Z,56.69
2022-07-30T17:18:30.595Z,56.78
2022-07-30T17:20:57.089Z,54.76
2022-07-30T17:23:23.561Z,53.19
2022-07-30T17:25:50.441Z,55.59
2022-07-30T17:28:19.462Z,55.80
2022-07-30T17:30:50.927Z,56.34
2022-07-30T17:33:17.317Z,54.51
2022-07-30T17:35:43.701Z,54.06
2022-07-30T17:38:10.197Z,56.35
2022-07-30T17:40:36.984Z,55.49
2022-07-30T17:43:04.346Z,56.48
2022-07-30T17:45:32.967Z,54.97
2022-07-30T17:48:01.441Z,54.62
2022-07-30T17:50:28.460Z,53.90
2022-07-30T17:52:54.899Z,55.30
2022-07-30T17:55:22.368Z,54.98
2022-07-30T17:57:48.871Z,55.10
2022-07-30T18:00:15.788Z,55.32
2022-07-30T18:02:42.159Z,56.12
2022-07-30T18:05:10.523Z,57.59
2022-07-30T18:07:37.269Z,58.70
2022-07-30T18:10:04.312Z,57.93
2022-07-30T18:12:30.925Z,57.96
2022-07-30T18:14:58.903Z,59.19
2022-07-30T18:17:25.436Z,59.65
2022-07-30T18:19:51.928Z,57.28
2022-07-30T18:22:28.222Z,57.27
2022-07-30T18:24:56.028Z,56.67
2022-07-30T18:27:22.407Z,56.74
2022-07-30T18:29:48.848Z,58.58
2022-07-30T18:32:15.342Z,57.80
2022-07-30T18:34:41.723Z,58.67
2022-07-30T18:37:08.122Z,59.51
2022-07-30T18:39:34.705Z,58.72
2022-07-30T18:42:02.431Z,59.77
2022-07-30T18:44:29.135Z,58.80
2022-07-30T18:46:55.569Z,61.16
2022-07-30T18:49:35.971Z,59.58
2022-07-30T18:52:04.361Z,60.57
2022-07-30T18:54:31.005Z,60.05
2022-07-30T18:56:57.536Z,59.92
2022-07-30T18:59:23.981Z,61.71
2022-07-30T19:01:50.705Z,60.43
2022-07-30T19:04:17.295Z,61.06
2022-07-30T19:06:44.048Z,59.78
2022-07-30T19:09:17.256Z,60.87
2022-07-30T19:11:44.975Z,61.23
2022-07-30T19:14:13.074Z,61.68
2022-07-30T19:16:40.163Z,61.79
2022-07-30T19:19:06.569Z,63.45
2022-07-30T19:21:33.121Z,62.89
2022-07-30T19:23:59.592Z,63.03
2022-07-30T19:26:26.058Z,63.52
2022-07-30T19:28:52.437Z,62.69
2022-07-30T19:31:19.226Z,63.27
2022-07-30T19:33:45.710Z,63.23
2022-07-30T19:36:12.936Z,64.03
2022-07-30T19:38:42.011Z,62.84
2022-07-30T19:41:08.779Z,63.48
2022-07-30T19:43:35.240Z,63.85
2022-07-30T19:46:03.651Z,64.24
2022-07-30T19:48:31.900Z,64.45
2022-07-30T19:51:00.775Z,64.87
2022-07-30T19:53:31.633Z,64.96
2022-07-30T19:56:08.344Z,64.98
2022-07-30T19:58:37.464Z,65.19
2022-07-30T20:01:08.436Z,64.72
2022-07-30T20:03:35.870Z,64.37
2022-07-30T20:06:03.730Z,65.14
2022-07-30T20:08:30.155Z,65.21
2022-07-30T20:10:57.391Z,64.02
2022-07-30T20:13:25.308Z,65.04
2022-07-30T20:16:14.294Z,65.02
2022-07-30T20:18:42.764Z,64.79
2022-07-30T20:21:14.622Z,64.34
2022-07-30T20:23:42.243Z,64.67
2022-07-30T20:26:13.405Z,64.84
2022-07-30T20:28:41.044Z,65.80
2022-07-30T20:31:08.229Z,65.68
2022-07-30T20:33:37.901Z,65.21
2022-07-30T20:36:05.766Z,64.77
2022-07-30T20:38:37.586Z,64.26
2022-07-30T20:41:10.029Z,64.22
2022-07-30T20:43:46.237Z,65.01
2022-07-30T20:46:19.417Z,65.21
2022-07-30T20:48:46.007Z,65.70
2022-07-30T20:51:12.543Z,64.95
2022-07-30T20:53:40.183Z,64.73
2022-07-30T20:56:06.561Z,64.38
2022-07-30T20:58:34.325Z,65.67
2022-07-30T21:01:00.855Z,65.79
2022-07-30T21:03:31.611Z,65.97
2022-07-30T21:05:58.633Z,65.82
2022-07-30T21:08:26.497Z,66.01
2022-07-30T21:10:53.368Z,65.46
2022-07-30T21:13:22.244Z,65.99
2022-07-30T21:16:02.402Z,65.08
2022-07-30T21:18:29.766Z,65.84
2022-07-30T21:20:57.283Z,65.90
2022-07-30T21:23:23.975Z,65.11
2022-07-30T21:26:00.669Z,66.02
2022-07-30T21:28:30.057Z,65.20
2022-07-30T21:31:02.605Z,65.89
2022-07-30T21:36:15.444Z,66.45
2022-07-30T21:38:42.777Z,66.51
2022-07-30T21:41:14.422Z,66.09
2022-07-30T21:43:42.745Z,65.79
2022-07-30T21:46:10.575Z,66.38
2022-07-30T21:48:37.021Z,66.26
2022-07-30T21:51:04.011Z,66.44
2022-07-30T21:56:17.056Z,66.76
2022-07-30T21:58:44.984Z,66.24
2022-07-30T22:01:17.095Z,65.89
2022-07-30T22:04:03.494Z,66.32
2022-07-30T22:06:36.584Z,65.73
2022-07-30T22:09:19.290Z,65.19
2022-07-30T22:11:52.520Z,64.27
2022-07-30T22:14:18.947Z,63.29
2022-07-30T22:16:46.408Z,64.81
2022-07-30T22:19:14.397Z,63.23
2022-07-30T22:21:41.668Z,65.51
2022-07-30T22:24:08.309Z,65.23
2022-07-30T22:26:34.705Z,64.73
2022-07-30T22:29:01.102Z,64.89
2022-07-30T22:31:28.096Z,65.40
2022-07-30T22:34:05.825Z,65.98
2022-07-30T22:36:37.884Z,65.17
2022-07-30T22:39:04.367Z,65.92
2022-07-30T22:41:35.462Z,65.72
2022-07-30T22:44:01.917Z,65.97
2022-07-30T22:46:30.900Z,65.85
2022-07-30T22:48:59.286Z,66.36
2022-07-30T22:51:25.993Z,66.06
2022-07-30T22:54:12.781Z,66.52
2022-07-30T22:56:39.698Z,66.19
2022-07-30T22:59:06.514Z,66.89
2022-07-30T23:01:32.948Z,66.31
2022-07-30T23:03:59.396Z,66.45
2022-07-30T23:06:28.003Z,66.50
2022-07-30T23:08:56.765Z,66.66
2022-07-30T23:11:23.213Z,66.65
2022-07-30T23:12:32.162Z,66.10
2022-07-30T23:12:32.893Z,66.28
2022-07-30T23:13:49.688Z,66.61
2022-07-30T23:16:16.167Z,66.81
2022-07-30T23:18:42.596Z,67.37
2022-07-30T23:21:09.858Z,65.67
2022-07-30T23:23:36.405Z,67.50
2022-07-30T23:26:06.507Z,67.70
2022-07-30T23:28:32.925Z,67.78
2022-07-30T23:30:59.369Z,68.04
2022-07-30T23:33:25.765Z,68.07
2022-07-30T23:35:52.253Z,67.89
2022-07-30T23:38:18.687Z,68.19
2022-07-30T23:40:45.074Z,68.14
2022-07-30T23:43:11.445Z,68.09
2022-07-30T23:45:37.891Z,68.54
2022-07-30T23:48:05.588Z,68.85
2022-07-30T23:50:32.902Z,67.83
2022-07-30T23:53:00.364Z,68.97
2022-07-30T23:55:27.174Z,69.12
2022-07-30T23:57:53.698Z,69.36
